sensor_id;sensor_type;location;lat;lon;timestamp;P1;durP1;ratioP1;P2;durP2;ratioP2
48665;SDS011;34452;50.796;4.994;2023-05-19T00:01:07;11.05;;;5.00;;
48665;SDS011;34452;50.796;4.994;2023-05-19T00:03:34;11.50;;;3.83;;
48665;SDS011;34452;50.796;4.994;2023-05-19T00:06:04;8.85;;;4.53;;
48665;SDS011;34452;50.796;4.994;2023-05-19T00:08:32;8.52;;;4.45;;
48665;SDS011;34452;50.796;4.994;2023-05-19T00:10:58;8.00;;;4.30;;
48665;SDS011;34452;50.796;4.994;2023-05-19T00:13:25;9.20;;;4.35;;
48665;SDS011;34452;50.796;4.994;2023-05-19T00:18:17;17.80;;;4.32;;
48665;SDS011;34452;50.796;4.994;2023-05-19T00:20:44;14.30;;;4.57;;
48665;SDS011;34452;50.796;4.994;2023-05-19T00:23:10;12.52;;;4.40;;
48665;SDS011;34452;50.796;4.994;2023-05-19T00:25:36;15.95;;;5.50;;
48665;SDS011;34452;50.796;4.994;2023-05-19T00:28:02;14.43;;;5.07;;
48665;SDS011;34452;50.796;4.994;2023-05-19T00:30:28;9.48;;;5.05;;
48665;SDS011;34452;50.796;4.994;2023-05-19T00:32:54;9.20;;;4.30;;
48665;SDS011;34452;50.796;4.994;2023-05-19T00:35:20;13.02;;;4.85;;
48665;SDS011;34452;50.796;4.994;2023-05-19T00:37:47;9.80;;;5.03;;
48665;SDS011;34452;50.796;4.994;2023-05-19T00:40:13;13.67;;;4.67;;
48665;SDS011;34452;50.796;4.994;2023-05-19T00:42:39;10.52;;;4.50;;
48665;SDS011;34452;50.796;4.994;2023-05-19T00:45:05;15.77;;;5.78;;
48665;SDS011;34452;50.796;4.994;2023-05-19T00:47:32;10.10;;;4.88;;
48665;SDS011;34452;50.796;4.994;2023-05-19T00:49:58;11.27;;;4.70;;
48665;SDS011;34452;50.796;4.994;2023-05-19T00:52:24;8.82;;;4.53;;
48665;SDS011;34452;50.796;4.994;2023-05-19T00:54:50;9.35;;;4.03;;
48665;SDS011;34452;50.796;4.994;2023-05-19T00:57:17;9.88;;;4.53;;
48665;SDS011;34452;50.796;4.994;2023-05-19T00:59:45;8.98;;;5.10;;
48665;SDS011;34452;50.796;4.994;2023-05-19T01:02:12;14.57;;;4.63;;
48665;SDS011;34452;50.796;4.994;2023-05-19T01:04:39;12.00;;;4.43;;
48665;SDS011;34452;50.796;4.994;2023-05-19T01:07:06;11.20;;;4.38;;
48665;SDS011;34452;50.796;4.994;2023-05-19T01:09:31;14.02;;;4.43;;
48665;SDS011;34452;50.796;4.994;2023-05-19T01:11:58;10.02;;;3.78;;
48665;SDS011;34452;50.796;4.994;2023-05-19T01:14:25;8.23;;;4.65;;
48665;SDS011;34452;50.796;4.994;2023-05-19T01:16:57;10.38;;;5.75;;
48665;SDS011;34452;50.796;4.994;2023-05-19T01:19:38;11.48;;;5.50;;
48665;SDS011;34452;50.796;4.994;2023-05-19T01:33:03;8.32;;;4.65;;
48665;SDS011;34452;50.796;4.994;2023-05-19T01:35:31;7.60;;;4.25;;
48665;SDS011;34452;50.796;4.994;2023-05-19T01:38:01;14.90;;;4.63;;
48665;SDS011;34452;50.796;4.994;2023-05-19T01:40:28;9.02;;;4.60;;
48665;SDS011;34452;50.796;4.994;2023-05-19T01:42:56;8.77;;;4.50;;
48665;SDS011;34452;50.796;4.994;2023-05-19T01:45:23;10.25;;;4.65;;
48665;SDS011;34452;50.796;4.994;2023-05-19T01:47:52;9.48;;;4.40;;
48665;SDS011;34452;50.796;4.994;2023-05-19T01:50:19;13.52;;;5.07;;
48665;SDS011;34452;50.796;4.994;2023-05-19T01:52:45;11.23;;;5.00;;
48665;SDS011;34452;50.796;4.994;2023-05-19T01:55:11;10.98;;;5.28;;
48665;SDS011;34452;50.796;4.994;2023-05-19T01:57:42;9.57;;;5.60;;
48665;SDS011;34452;50.796;4.994;2023-05-19T02:00:17;15.35;;;6.43;;
48665;SDS011;34452;50.796;4.994;2023-05-19T02:08:41;12.30;;;6.45;;
48665;SDS011;34452;50.796;4.994;2023-05-19T02:11:13;13.90;;;6.53;;
48665;SDS011;34452;50.796;4.994;2023-05-19T02:13:47;14.68;;;6.18;;
48665;SDS011;34452;50.796;4.994;2023-05-19T02:16:17;16.65;;;6.10;;
48665;SDS011;34452;50.796;4.994;2023-05-19T02:18:45;13.73;;;6.32;;
48665;SDS011;34452;50.796;4.994;2023-05-19T02:21:12;14.55;;;6.93;;
48665;SDS011;34452;50.796;4.994;2023-05-19T02:23:39;13.35;;;6.10;;
48665;SDS011;34452;50.796;4.994;2023-05-19T02:26:06;18.27;;;7.28;;
48665;SDS011;34452;50.796;4.994;2023-05-19T02:28:33;17.77;;;6.30;;
48665;SDS011;34452;50.796;4.994;2023-05-19T02:30:59;10.60;;;6.43;;
48665;SDS011;34452;50.796;4.994;2023-05-19T02:33:25;10.05;;;6.60;;
48665;SDS011;34452;50.796;4.994;2023-05-19T02:35:51;11.05;;;6.80;;
48665;SDS011;34452;50.796;4.994;2023-05-19T02:38:17;7.32;;;5.78;;
48665;SDS011;34452;50.796;4.994;2023-05-19T02:40:43;18.13;;;7.40;;
48665;SDS011;34452;50.796;4.994;2023-05-19T02:43:08;11.70;;;6.90;;
48665;SDS011;34452;50.796;4.994;2023-05-19T02:45:35;13.50;;;6.82;;
48665;SDS011;34452;50.796;4.994;2023-05-19T02:48:00;13.50;;;6.90;;
48665;SDS011;34452;50.796;4.994;2023-05-19T02:50:26;10.23;;;6.27;;
48665;SDS011;34452;50.796;4.994;2023-05-19T02:52:52;11.80;;;6.57;;
48665;SDS011;34452;50.796;4.994;2023-05-19T02:55:18;13.52;;;5.03;;
48665;SDS011;34452;50.796;4.994;2023-05-19T02:57:44;8.88;;;5.75;;
48665;SDS011;34452;50.796;4.994;2023-05-19T03:00:10;10.73;;;5.90;;
48665;SDS011;34452;50.796;4.994;2023-05-19T03:02:36;8.63;;;5.97;;
48665;SDS011;34452;50.796;4.994;2023-05-19T03:05:01;17.57;;;7.20;;
48665;SDS011;34452;50.796;4.994;2023-05-19T03:07:28;16.48;;;7.30;;
48665;SDS011;34452;50.796;4.994;2023-05-19T03:09:53;11.48;;;6.78;;
48665;SDS011;34452;50.796;4.994;2023-05-19T03:12:19;14.68;;;6.82;;
48665;SDS011;34452;50.796;4.994;2023-05-19T03:14:45;12.13;;;6.32;;
48665;SDS011;34452;50.796;4.994;2023-05-19T03:17:11;14.35;;;8.27;;
48665;SDS011;34452;50.796;4.994;2023-05-19T03:19:37;10.98;;;6.35;;
48665;SDS011;34452;50.796;4.994;2023-05-19T03:22:03;12.07;;;6.70;;
48665;SDS011;34452;50.796;4.994;2023-05-19T03:24:29;10.45;;;5.57;;
48665;SDS011;34452;50.796;4.994;2023-05-19T03:26:54;10.77;;;6.13;;
48665;SDS011;34452;50.796;4.994;2023-05-19T03:29:20;10.27;;;5.10;;
48665;SDS011;34452;50.796;4.994;2023-05-19T03:31:46;10.73;;;5.30;;
48665;SDS011;34452;50.796;4.994;2023-05-19T03:34:12;9.27;;;5.87;;
48665;SDS011;34452;50.796;4.994;2023-05-19T03:36:37;16.20;;;6.03;;
48665;SDS011;34452;50.796;4.994;2023-05-19T03:39:05;17.52;;;7.35;;
48665;SDS011;34452;50.796;4.994;2023-05-19T03:41:31;11.10;;;6.32;;
48665;SDS011;34452;50.796;4.994;2023-05-19T03:43:56;11.40;;;4.90;;
48665;SDS011;34452;50.796;4.994;2023-05-19T03:46:22;8.33;;;5.87;;
48665;SDS011;34452;50.796;4.994;2023-05-19T03:48:48;13.27;;;5.77;;
48665;SDS011;34452;50.796;4.994;2023-05-19T03:51:14;14.93;;;7.68;;
48665;SDS011;34452;50.796;4.994;2023-05-19T03:53:39;24.17;;;9.13;;
48665;SDS011;34452;50.796;4.994;2023-05-19T03:56:05;12.67;;;6.40;;
48665;SDS011;34452;50.796;4.994;2023-05-19T03:58:31;25.95;;;8.32;;
48665;SDS011;34452;50.796;4.994;2023-05-19T04:00:58;16.45;;;6.30;;
48665;SDS011;34452;50.796;4.994;2023-05-19T04:03:24;8.55;;;5.13;;
48665;SDS011;34452;50.796;4.994;2023-05-19T04:05:50;12.70;;;6.75;;
48665;SDS011;34452;50.796;4.994;2023-05-19T04:08:16;10.15;;;5.95;;
48665;SDS011;34452;50.796;4.994;2023-05-19T04:10:42;16.15;;;6.15;;
48665;SDS011;34452;50.796;4.994;2023-05-19T04:13:08;10.40;;;6.00;;
48665;SDS011;34452;50.796;4.994;2023-05-19T04:15:34;13.82;;;6.03;;
48665;SDS011;34452;50.796;4.994;2023-05-19T04:18:00;8.85;;;5.38;;
48665;SDS011;34452;50.796;4.994;2023-05-19T04:20:26;10.27;;;6.05;;
48665;SDS011;34452;50.796;4.994;2023-05-19T04:22:51;6.53;;;4.93;;
48665;SDS011;34452;50.796;4.994;2023-05-19T04:25:17;10.63;;;5.50;;
48665;SDS011;34452;50.796;4.994;2023-05-19T04:27:44;8.73;;;5.55;;
48665;SDS011;34452;50.796;4.994;2023-05-19T04:30:10;16.20;;;6.50;;
48665;SDS011;34452;50.796;4.994;2023-05-19T04:32:36;12.82;;;5.80;;
48665;SDS011;34452;50.796;4.994;2023-05-19T04:35:03;17.33;;;7.00;;
48665;SDS011;34452;50.796;4.994;2023-05-19T04:37:29;10.23;;;6.40;;
48665;SDS011;34452;50.796;4.994;2023-05-19T04:39:55;40.25;;;8.75;;
48665;SDS011;34452;50.796;4.994;2023-05-19T04:42:21;15.77;;;6.57;;
48665;SDS011;34452;50.796;4.994;2023-05-19T04:44:50;11.90;;;5.70;;
48665;SDS011;34452;50.796;4.994;2023-05-19T04:47:15;16.17;;;6.70;;
48665;SDS011;34452;50.796;4.994;2023-05-19T04:49:41;15.43;;;6.70;;
48665;SDS011;34452;50.796;4.994;2023-05-19T04:52:09;14.88;;;6.75;;
48665;SDS011;34452;50.796;4.994;2023-05-19T04:54:36;19.55;;;7.20;;
48665;SDS011;34452;50.796;4.994;2023-05-19T04:57:02;16.55;;;7.45;;
48665;SDS011;34452;50.796;4.994;2023-05-19T04:59:28;12.18;;;6.55;;
48665;SDS011;34452;50.796;4.994;2023-05-19T05:01:54;18.25;;;7.40;;
48665;SDS011;34452;50.796;4.994;2023-05-19T05:04:21;16.45;;;7.15;;
48665;SDS011;34452;50.796;4.994;2023-05-19T05:06:47;17.02;;;7.50;;
48665;SDS011;34452;50.796;4.994;2023-05-19T05:09:14;18.75;;;7.40;;
48665;SDS011;34452;50.796;4.994;2023-05-19T05:11:40;13.75;;;6.70;;
48665;SDS011;34452;50.796;4.994;2023-05-19T05:14:06;19.33;;;7.05;;
48665;SDS011;34452;50.796;4.994;2023-05-19T05:16:32;19.42;;;7.85;;
48665;SDS011;34452;50.796;4.994;2023-05-19T05:21:25;17.67;;;7.93;;
48665;SDS011;34452;50.796;4.994;2023-05-19T05:23:52;13.32;;;7.10;;
48665;SDS011;34452;50.796;4.994;2023-05-19T05:26:18;16.55;;;8.43;;
48665;SDS011;34452;50.796;4.994;2023-05-19T05:28:47;18.95;;;7.78;;
48665;SDS011;34452;50.796;4.994;2023-05-19T05:31:13;15.23;;;8.35;;
48665;SDS011;34452;50.796;4.994;2023-05-19T05:33:39;19.90;;;7.93;;
48665;SDS011;34452;50.796;4.994;2023-05-19T05:36:05;15.60;;;8.63;;
48665;SDS011;34452;50.796;4.994;2023-05-19T05:38:31;13.98;;;7.93;;
48665;SDS011;34452;50.796;4.994;2023-05-19T05:40:57;16.40;;;8.25;;
48665;SDS011;34452;50.796;4.994;2023-05-19T05:43:23;15.38;;;7.65;;
48665;SDS011;34452;50.796;4.994;2023-05-19T05:45:49;15.70;;;7.15;;
48665;SDS011;34452;50.796;4.994;2023-05-19T05:48:14;16.13;;;8.05;;
48665;SDS011;34452;50.796;4.994;2023-05-19T05:50:42;15.25;;;7.57;;
48665;SDS011;34452;50.796;4.994;2023-05-19T05:53:08;19.17;;;6.93;;
48665;SDS011;34452;50.796;4.994;2023-05-19T05:55:41;14.95;;;7.18;;
48665;SDS011;34452;50.796;4.994;2023-05-19T05:58:07;19.52;;;7.35;;
48665;SDS011;34452;50.796;4.994;2023-05-19T06:00:35;17.02;;;7.28;;
48665;SDS011;34452;50.796;4.994;2023-05-19T06:05:28;17.50;;;7.80;;
48665;SDS011;34452;50.796;4.994;2023-05-19T06:07:54;14.60;;;7.13;;
48665;SDS011;34452;50.796;4.994;2023-05-19T06:10:20;20.48;;;7.43;;
48665;SDS011;34452;50.796;4.994;2023-05-19T06:12:46;15.50;;;7.68;;
48665;SDS011;34452;50.796;4.994;2023-05-19T06:15:12;15.77;;;7.93;;
48665;SDS011;34452;50.796;4.994;2023-05-19T06:17:37;16.08;;;6.55;;
48665;SDS011;34452;50.796;4.994;2023-05-19T06:20:04;12.57;;;6.53;;
48665;SDS011;34452;50.796;4.994;2023-05-19T06:22:30;16.30;;;7.93;;
48665;SDS011;34452;50.796;4.994;2023-05-19T06:24:56;16.35;;;7.50;;
48665;SDS011;34452;50.796;4.994;2023-05-19T06:27:22;18.65;;;7.40;;
48665;SDS011;34452;50.796;4.994;2023-05-19T06:29:48;19.13;;;7.33;;
48665;SDS011;34452;50.796;4.994;2023-05-19T06:32:13;18.25;;;7.78;;
48665;SDS011;34452;50.796;4.994;2023-05-19T06:34:39;17.55;;;7.40;;
48665;SDS011;34452;50.796;4.994;2023-05-19T06:37:05;15.80;;;7.68;;
48665;SDS011;34452;50.796;4.994;2023-05-19T06:39:31;18.42;;;7.60;;
48665;SDS011;34452;50.796;4.994;2023-05-19T06:41:57;15.10;;;7.95;;
48665;SDS011;34452;50.796;4.994;2023-05-19T06:44:23;15.20;;;7.57;;
48665;SDS011;34452;50.796;4.994;2023-05-19T06:46:48;15.45;;;6.80;;
48665;SDS011;34452;50.796;4.994;2023-05-19T06:49:14;15.20;;;6.20;;
48665;SDS011;34452;50.796;4.994;2023-05-19T06:51:40;19.27;;;7.43;;
48665;SDS011;34452;50.796;4.994;2023-05-19T06:54:06;12.85;;;7.40;;
48665;SDS011;34452;50.796;4.994;2023-05-19T06:56:31;14.15;;;7.75;;
48665;SDS011;34452;50.796;4.994;2023-05-19T06:58:57;15.55;;;7.00;;
48665;SDS011;34452;50.796;4.994;2023-05-19T07:01:23;12.90;;;7.10;;
48665;SDS011;34452;50.796;4.994;2023-05-19T07:03:50;23.35;;;7.90;;
48665;SDS011;34452;50.796;4.994;2023-05-19T07:06:16;21.63;;;7.53;;
48665;SDS011;34452;50.796;4.994;2023-05-19T07:08:41;19.95;;;6.90;;
48665;SDS011;34452;50.796;4.994;2023-05-19T07:11:07;12.63;;;6.25;;
48665;SDS011;34452;50.796;4.994;2023-05-19T07:13:33;11.75;;;6.35;;
48665;SDS011;34452;50.796;4.994;2023-05-19T07:15:59;18.50;;;6.53;;
48665;SDS011;34452;50.796;4.994;2023-05-19T07:18:25;20.17;;;8.00;;
48665;SDS011;34452;50.796;4.994;2023-05-19T07:20:51;16.63;;;7.25;;
48665;SDS011;34452;50.796;4.994;2023-05-19T07:23:17;18.40;;;7.72;;
48665;SDS011;34452;50.796;4.994;2023-05-19T07:25:43;15.65;;;6.47;;
48665;SDS011;34452;50.796;4.994;2023-05-19T07:28:09;14.38;;;6.75;;
48665;SDS011;34452;50.796;4.994;2023-05-19T07:30:35;16.00;;;6.72;;
48665;SDS011;34452;50.796;4.994;2023-05-19T07:33:00;20.48;;;6.88;;
48665;SDS011;34452;50.796;4.994;2023-05-19T07:35:26;17.00;;;7.13;;
48665;SDS011;34452;50.796;4.994;2023-05-19T07:37:52;17.73;;;6.80;;
48665;SDS011;34452;50.796;4.994;2023-05-19T07:40:18;19.02;;;6.53;;
48665;SDS011;34452;50.796;4.994;2023-05-19T07:42:44;12.57;;;6.57;;
48665;SDS011;34452;50.796;4.994;2023-05-19T07:45:10;13.60;;;6.40;;
48665;SDS011;34452;50.796;4.994;2023-05-19T07:47:36;20.45;;;6.65;;
48665;SDS011;34452;50.796;4.994;2023-05-19T07:50:02;13.68;;;6.78;;
48665;SDS011;34452;50.796;4.994;2023-05-19T07:52:28;20.95;;;7.65;;
48665;SDS011;34452;50.796;4.994;2023-05-19T07:54:54;15.23;;;6.53;;
48665;SDS011;34452;50.796;4.994;2023-05-19T07:57:20;11.57;;;5.47;;
48665;SDS011;34452;50.796;4.994;2023-05-19T07:59:46;10.88;;;5.18;;
48665;SDS011;34452;50.796;4.994;2023-05-19T08:02:12;11.15;;;4.85;;
48665;SDS011;34452;50.796;4.994;2023-05-19T08:04:38;14.25;;;5.65;;
48665;SDS011;34452;50.796;4.994;2023-05-19T08:07:03;15.32;;;5.07;;
48665;SDS011;34452;50.796;4.994;2023-05-19T08:09:29;21.70;;;6.68;;
48665;SDS011;34452;50.796;4.994;2023-05-19T08:11:55;11.30;;;5.50;;
48665;SDS011;34452;50.796;4.994;2023-05-19T08:14:21;18.73;;;4.70;;
48665;SDS011;34452;50.796;4.994;2023-05-19T08:16:47;15.10;;;5.47;;
48665;SDS011;34452;50.796;4.994;2023-05-19T08:19:13;13.73;;;5.20;;
48665;SDS011;34452;50.796;4.994;2023-05-19T08:21:39;11.77;;;4.63;;
48665;SDS011;34452;50.796;4.994;2023-05-19T08:24:06;12.38;;;4.60;;
48665;SDS011;34452;50.796;4.994;2023-05-19T08:28:58;16.02;;;5.40;;
48665;SDS011;34452;50.796;4.994;2023-05-19T08:31:24;13.85;;;4.88;;
48665;SDS011;34452;50.796;4.994;2023-05-19T08:33:50;15.45;;;4.25;;
48665;SDS011;34452;50.796;4.994;2023-05-19T08:36:16;14.38;;;4.70;;
48665;SDS011;34452;50.796;4.994;2023-05-19T08:41:08;12.80;;;4.00;;
48665;SDS011;34452;50.796;4.994;2023-05-19T08:43:34;12.25;;;4.10;;
48665;SDS011;34452;50.796;4.994;2023-05-19T08:45:59;11.75;;;4.82;;
48665;SDS011;34452;50.796;4.994;2023-05-19T08:48:28;7.30;;;2.65;;
48665;SDS011;34452;50.796;4.994;2023-05-19T08:51:03;9.27;;;3.00;;
48665;SDS011;34452;50.796;4.994;2023-05-19T08:53:41;10.02;;;2.75;;
48665;SDS011;34452;50.796;4.994;2023-05-19T08:56:13;13.75;;;2.97;;
48665;SDS011;34452;50.796;4.994;2023-05-19T08:58:58;16.15;;;3.10;;
48665;SDS011;34452;50.796;4.994;2023-05-19T09:01:26;11.10;;;3.17;;
48665;SDS011;34452;50.796;4.994;2023-05-19T09:03:54;15.07;;;4.55;;
48665;SDS011;34452;50.796;4.994;2023-05-19T09:06:20;8.30;;;2.40;;
48665;SDS011;34452;50.796;4.994;2023-05-19T09:08:45;8.43;;;2.35;;
48665;SDS011;34452;50.796;4.994;2023-05-19T09:11:12;8.27;;;2.47;;
48665;SDS011;34452;50.796;4.994;2023-05-19T09:13:38;15.30;;;2.78;;
48665;SDS011;34452;50.796;4.994;2023-05-19T09:16:04;12.50;;;2.33;;
48665;SDS011;34452;50.796;4.994;2023-05-19T09:18:30;7.78;;;2.47;;
48665;SDS011;34452;50.796;4.994;2023-05-19T09:20:57;8.32;;;2.28;;
48665;SDS011;34452;50.796;4.994;2023-05-19T09:23:25;11.70;;;3.35;;
48665;SDS011;34452;50.796;4.994;2023-05-19T09:25:53;11.45;;;2.35;;
48665;SDS011;34452;50.796;4.994;2023-05-19T09:28:33;11.80;;;2.45;;
48665;SDS011;34452;50.796;4.994;2023-05-19T09:31:02;6.55;;;2.20;;
48665;SDS011;34452;50.796;4.994;2023-05-19T09:33:34;11.25;;;2.42;;
48665;SDS011;34452;50.796;4.994;2023-05-19T09:36:02;8.80;;;1.83;;
48665;SDS011;34452;50.796;4.994;2023-05-19T09:38:30;10.90;;;1.88;;
48665;SDS011;34452;50.796;4.994;2023-05-19T09:40:57;8.77;;;2.42;;
48665;SDS011;34452;50.796;4.994;2023-05-19T09:46:18;11.18;;;2.10;;
48665;SDS011;34452;50.796;4.994;2023-05-19T09:48:56;6.80;;;1.98;;
48665;SDS011;34452;50.796;4.994;2023-05-19T09:51:22;5.72;;;1.75;;
48665;SDS011;34452;50.796;4.994;2023-05-19T09:53:49;8.07;;;1.88;;
48665;SDS011;34452;50.796;4.994;2023-05-19T09:56:16;11.52;;;2.65;;
48665;SDS011;34452;50.796;4.994;2023-05-19T09:58:45;6.57;;;1.85;;
48665;SDS011;34452;50.796;4.994;2023-05-19T10:01:10;6.95;;;1.88;;
48665;SDS011;34452;50.796;4.994;2023-05-19T10:03:37;6.25;;;2.17;;
48665;SDS011;34452;50.796;4.994;2023-05-19T10:06:03;8.90;;;2.10;;
48665;SDS011;34452;50.796;4.994;2023-05-19T10:08:31;7.53;;;2.03;;
48665;SDS011;34452;50.796;4.994;2023-05-19T10:10:58;7.47;;;1.77;;
48665;SDS011;34452;50.796;4.994;2023-05-19T10:13:24;5.82;;;1.90;;
48665;SDS011;34452;50.796;4.994;2023-05-19T10:15:53;8.65;;;2.03;;
48665;SDS011;34452;50.796;4.994;2023-05-19T10:18:20;9.45;;;2.65;;
48665;SDS011;34452;50.796;4.994;2023-05-19T10:20:48;9.90;;;2.50;;
48665;SDS011;34452;50.796;4.994;2023-05-19T10:23:16;10.75;;;2.20;;
48665;SDS011;34452;50.796;4.994;2023-05-19T10:25:42;7.20;;;1.95;;
48665;SDS011;34452;50.796;4.994;2023-05-19T10:30:39;12.98;;;2.13;;
48665;SDS011;34452;50.796;4.994;2023-05-19T10:33:08;8.27;;;2.00;;
48665;SDS011;34452;50.796;4.994;2023-05-19T10:38:33;10.80;;;2.33;;
48665;SDS011;34452;50.796;4.994;2023-05-19T10:46:47;7.70;;;2.33;;
48665;SDS011;34452;50.796;4.994;2023-05-19T10:51:58;7.15;;;2.10;;
48665;SDS011;34452;50.796;4.994;2023-05-19T10:57:13;10.80;;;2.83;;
48665;SDS011;34452;50.796;4.994;2023-05-19T10:59:40;9.90;;;2.88;;
48665;SDS011;34452;50.796;4.994;2023-05-19T11:02:08;9.40;;;2.55;;
48665;SDS011;34452;50.796;4.994;2023-05-19T11:07:22;14.15;;;3.47;;
48665;SDS011;34452;50.796;4.994;2023-05-19T11:12:22;8.20;;;2.20;;
48665;SDS011;34452;50.796;4.994;2023-05-19T11:17:27;8.70;;;2.45;;
48665;SDS011;34452;50.796;4.994;2023-05-19T11:19:53;11.02;;;2.92;;
48665;SDS011;34452;50.796;4.994;2023-05-19T11:22:22;6.40;;;1.80;;
48665;SDS011;34452;50.796;4.994;2023-05-19T11:24:50;7.95;;;2.28;;
48665;SDS011;34452;50.796;4.994;2023-05-19T11:32:31;13.15;;;2.92;;
48665;SDS011;34452;50.796;4.994;2023-05-19T11:34:58;8.43;;;2.28;;
48665;SDS011;34452;50.796;4.994;2023-05-19T11:37:24;7.80;;;2.17;;
48665;SDS011;34452;50.796;4.994;2023-05-19T11:39:51;10.63;;;2.13;;
48665;SDS011;34452;50.796;4.994;2023-05-19T11:42:17;7.00;;;2.10;;
48665;SDS011;34452;50.796;4.994;2023-05-19T11:47:11;8.68;;;2.20;;
48665;SDS011;34452;50.796;4.994;2023-05-19T11:49:41;7.32;;;2.65;;
48665;SDS011;34452;50.796;4.994;2023-05-19T11:52:08;8.27;;;2.00;;
48665;SDS011;34452;50.796;4.994;2023-05-19T11:54:34;10.40;;;2.70;;
48665;SDS011;34452;50.796;4.994;2023-05-19T11:59:29;9.85;;;2.65;;
48665;SDS011;34452;50.796;4.994;2023-05-19T12:01:56;6.43;;;2.10;;
48665;SDS011;34452;50.796;4.994;2023-05-19T12:04:24;10.18;;;2.15;;
48665;SDS011;34452;50.796;4.994;2023-05-19T12:06:50;21.52;;;2.05;;
48665;SDS011;34452;50.796;4.994;2023-05-19T12:09:17;20.67;;;2.85;;
48665;SDS011;34452;50.796;4.994;2023-05-19T12:11:43;13.70;;;2.38;;
48665;SDS011;34452;50.796;4.994;2023-05-19T12:14:09;6.70;;;2.22;;
48665;SDS011;34452;50.796;4.994;2023-05-19T12:16:36;13.50;;;2.45;;
48665;SDS011;34452;50.796;4.994;2023-05-19T12:19:14;8.43;;;2.15;;
48665;SDS011;34452;50.796;4.994;2023-05-19T12:21:41;10.50;;;2.65;;
48665;SDS011;34452;50.796;4.994;2023-05-19T12:24:07;13.32;;;2.85;;
48665;SDS011;34452;50.796;4.994;2023-05-19T12:26:34;9.25;;;2.70;;
48665;SDS011;34452;50.796;4.994;2023-05-19T12:29:01;7.55;;;2.55;;
48665;SDS011;34452;50.796;4.994;2023-05-19T12:31:30;8.38;;;2.55;;
48665;SDS011;34452;50.796;4.994;2023-05-19T12:33:58;9.30;;;2.47;;
48665;SDS011;34452;50.796;4.994;2023-05-19T12:36:23;6.13;;;2.00;;
48665;SDS011;34452;50.796;4.994;2023-05-19T12:38:52;11.40;;;2.00;;
48665;SDS011;34452;50.796;4.994;2023-05-19T12:41:19;12.00;;;3.60;;
48665;SDS011;34452;50.796;4.994;2023-05-19T12:43:44;9.48;;;2.38;;
48665;SDS011;34452;50.796;4.994;2023-05-19T12:46:10;14.38;;;3.03;;
48665;SDS011;34452;50.796;4.994;2023-05-19T12:48:46;12.95;;;2.35;;
48665;SDS011;34452;50.796;4.994;2023-05-19T12:51:23;13.00;;;2.75;;
48665;SDS011;34452;50.796;4.994;2023-05-19T12:53:50;10.15;;;3.13;;
48665;SDS011;34452;50.796;4.994;2023-05-19T12:56:16;7.80;;;2.78;;
48665;SDS011;34452;50.796;4.994;2023-05-19T12:58:42;11.00;;;2.63;;
48665;SDS011;34452;50.796;4.994;2023-05-19T13:01:17;11.57;;;2.70;;
48665;SDS011;34452;50.796;4.994;2023-05-19T13:03:43;8.60;;;2.50;;
48665;SDS011;34452;50.796;4.994;2023-05-19T13:06:09;13.18;;;2.92;;
48665;SDS011;34452;50.796;4.994;2023-05-19T13:08:35;6.95;;;2.20;;
48665;SDS011;34452;50.796;4.994;2023-05-19T13:11:03;10.55;;;2.33;;
48665;SDS011;34452;50.796;4.994;2023-05-19T13:13:28;12.18;;;2.75;;
48665;SDS011;34452;50.796;4.994;2023-05-19T13:15:54;15.35;;;2.47;;
48665;SDS011;34452;50.796;4.994;2023-05-19T13:18:20;9.77;;;2.67;;
48665;SDS011;34452;50.796;4.994;2023-05-19T13:20:46;10.50;;;2.75;;
48665;SDS011;34452;50.796;4.994;2023-05-19T13:23:14;7.70;;;2.92;;
48665;SDS011;34452;50.796;4.994;2023-05-19T13:25:40;16.65;;;2.75;;
48665;SDS011;34452;50.796;4.994;2023-05-19T13:28:06;12.95;;;2.83;;
48665;SDS011;34452;50.796;4.994;2023-05-19T13:30:32;9.70;;;2.45;;
48665;SDS011;34452;50.796;4.994;2023-05-19T13:32:59;10.00;;;3.03;;
48665;SDS011;34452;50.796;4.994;2023-05-19T13:35:25;9.52;;;2.47;;
48665;SDS011;34452;50.796;4.994;2023-05-19T13:37:50;10.60;;;2.63;;
48665;SDS011;34452;50.796;4.994;2023-05-19T13:40:16;15.18;;;2.78;;
48665;SDS011;34452;50.796;4.994;2023-05-19T13:42:43;7.05;;;2.63;;
48665;SDS011;34452;50.796;4.994;2023-05-19T13:47:35;10.30;;;2.67;;
48665;SDS011;34452;50.796;4.994;2023-05-19T13:52:28;8.32;;;2.47;;
48665;SDS011;34452;50.796;4.994;2023-05-19T13:54:54;7.82;;;2.55;;
48665;SDS011;34452;50.796;4.994;2023-05-19T13:59:47;9.68;;;3.50;;
48665;SDS011;34452;50.796;4.994;2023-05-19T14:02:13;11.32;;;2.70;;
48665;SDS011;34452;50.796;4.994;2023-05-19T14:04:38;18.05;;;3.35;;
48665;SDS011;34452;50.796;4.994;2023-05-19T14:07:05;13.90;;;2.40;;
48665;SDS011;34452;50.796;4.994;2023-05-19T14:09:31;14.98;;;2.67;;
48665;SDS011;34452;50.796;4.994;2023-05-19T14:14:23;8.18;;;2.88;;
48665;SDS011;34452;50.796;4.994;2023-05-19T14:16:49;14.68;;;3.22;;
48665;SDS011;34452;50.796;4.994;2023-05-19T14:19:15;9.82;;;3.17;;
48665;SDS011;34452;50.796;4.994;2023-05-19T14:21:41;13.05;;;2.80;;
48665;SDS011;34452;50.796;4.994;2023-05-19T14:24:07;8.52;;;2.53;;
48665;SDS011;34452;50.796;4.994;2023-05-19T14:26:32;10.48;;;2.85;;
48665;SDS011;34452;50.796;4.994;2023-05-19T14:28:58;11.85;;;3.10;;
48665;SDS011;34452;50.796;4.994;2023-05-19T14:31:24;8.25;;;2.97;;
48665;SDS011;34452;50.796;4.994;2023-05-19T14:33:50;11.55;;;3.08;;
48665;SDS011;34452;50.796;4.994;2023-05-19T14:36:16;14.75;;;3.00;;
48665;SDS011;34452;50.796;4.994;2023-05-19T14:38:41;7.60;;;3.47;;
48665;SDS011;34452;50.796;4.994;2023-05-19T14:41:07;8.88;;;2.75;;
48665;SDS011;34452;50.796;4.994;2023-05-19T14:43:33;10.30;;;2.90;;
48665;SDS011;34452;50.796;4.994;2023-05-19T14:45:59;10.40;;;2.75;;
48665;SDS011;34452;50.796;4.994;2023-05-19T14:48:24;7.85;;;2.63;;
48665;SDS011;34452;50.796;4.994;2023-05-19T14:50:50;12.60;;;2.60;;
48665;SDS011;34452;50.796;4.994;2023-05-19T14:53:17;16.02;;;2.90;;
48665;SDS011;34452;50.796;4.994;2023-05-19T14:55:43;8.32;;;3.00;;
48665;SDS011;34452;50.796;4.994;2023-05-19T14:58:11;10.38;;;3.05;;
48665;SDS011;34452;50.796;4.994;2023-05-19T15:00:37;14.50;;;3.03;;
48665;SDS011;34452;50.796;4.994;2023-05-19T15:03:03;8.68;;;2.67;;
48665;SDS011;34452;50.796;4.994;2023-05-19T15:05:29;19.30;;;2.97;;
48665;SDS011;34452;50.796;4.994;2023-05-19T15:07:54;11.40;;;2.95;;
48665;SDS011;34452;50.796;4.994;2023-05-19T15:10:20;6.45;;;2.60;;
48665;SDS011;34452;50.796;4.994;2023-05-19T15:12:46;6.97;;;2.90;;
48665;SDS011;34452;50.796;4.994;2023-05-19T15:15:13;22.65;;;3.50;;
48665;SDS011;34452;50.796;4.994;2023-05-19T15:17:40;14.40;;;2.97;;
48665;SDS011;34452;50.796;4.994;2023-05-19T15:20:06;10.65;;;2.40;;
48665;SDS011;34452;50.796;4.994;2023-05-19T15:22:32;8.00;;;2.75;;
48665;SDS011;34452;50.796;4.994;2023-05-19T15:24:58;11.27;;;3.25;;
48665;SDS011;34452;50.796;4.994;2023-05-19T15:27:25;8.60;;;2.70;;
48665;SDS011;34452;50.796;4.994;2023-05-19T15:32:16;8.77;;;2.78;;
48665;SDS011;34452;50.796;4.994;2023-05-19T15:34:42;9.07;;;2.28;;
48665;SDS011;34452;50.796;4.994;2023-05-19T15:37:08;13.45;;;2.58;;
48665;SDS011;34452;50.796;4.994;2023-05-19T15:39:34;9.38;;;2.63;;
48665;SDS011;34452;50.796;4.994;2023-05-19T15:41:59;18.98;;;3.45;;
48665;SDS011;34452;50.796;4.994;2023-05-19T15:44:25;13.80;;;2.72;;
48665;SDS011;34452;50.796;4.994;2023-05-19T15:46:51;7.55;;;2.88;;
48665;SDS011;34452;50.796;4.994;2023-05-19T15:49:17;9.23;;;2.30;;
48665;SDS011;34452;50.796;4.994;2023-05-19T15:51:43;8.60;;;2.85;;
48665;SDS011;34452;50.796;4.994;2023-05-19T15:56:34;12.27;;;2.67;;